Time;durP1;ratioP1;P1;durP2;ratioP2;P2;SDS_P1;SDS_P2;PMS_P1;PMS_P2;Temp;Humidity;BMP_temperature;BMP_pressure;BME280_temperature;BME280_humidity;BME280_pressure;Samples;Min_cycle;Max_cycle;Signal;HPM_P1;HPM_P2
2022/10/07 00:00:21;;;;;;;18.33;3.05;;;11.20;99.90;;;;;;4972548;28;20548;-59
2022/10/07 00:02:47;;;;;;;16.13;3.60;;;11.20;99.90;;;;;;4988559;28;20039;-60
2022/10/07 00:05:13;;;;;;;12.55;2.80;;;11.10;99.90;;;;;;4957734;28;20046;-60
2022/10/07 00:07:39;;;;;;;13.40;2.97;;;11.10;99.90;;;;;;4993492;28;20046;-60
2022/10/07 00:10:05;;;;;;;12.48;2.70;;;11.10;99.90;;;;;;4984047;28;20041;-59
2022/10/07 00:12:31;;;;;;;11.43;2.78;;;11.20;99.90;;;;;;4983958;28;20053;-59
2022/10/07 00:14:56;;;;;;;13.32;3.10;;;11.10;99.90;;;;;;4979161;28;20042;-58
2022/10/07 00:17:22;;;;;;;12.98;3.08;;;11.10;99.90;;;;;;4987745;28;20038;-58
2022/10/07 00:19:48;;;;;;;14.38;3.22;;;11.10;99.90;;;;;;4948413;28;20034;-59
2022/10/07 00:22:13;;;;;;;9.63;2.10;;;11.10;99.90;;;;;;4958749;28;20042;-60
2022/10/07 00:24:39;;;;;;;16.58;2.83;;;11.10;99.90;;;;;;4980953;28;20097;-60
2022/10/07 00:27:05;;;;;;;11.38;3.00;;;11.20;99.90;;;;;;4977344;28;20512;-60
2022/10/07 00:29:30;;;;;;;11.32;3.20;;;11.20;99.90;;;;;;4979898;28;20048;-60
2022/10/07 00:31:56;;;;;;;15.30;2.80;;;11.10;99.90;;;;;;4983731;28;20493;-60
2022/10/07 00:34:22;;;;;;;11.63;3.67;;;11.10;99.90;;;;;;4969474;28;20395;-59
2022/10/07 00:36:49;;;;;;;10.27;3.17;;;11.10;99.90;;;;;;4960131;28;20042;-60
2022/10/07 00:39:16;;;;;;;12.27;3.03;;;11.10;99.90;;;;;;4965753;28;20050;-59
2022/10/07 00:41:47;;;;;;;11.50;3.42;;;11.10;99.90;;;;;;4984878;28;20100;-59
2022/10/07 00:44:31;;;;;;;11.93;2.78;;;11.10;99.90;;;;;;4979040;28;20053;-59
2022/10/07 00:47:29;;;;;;;18.92;3.00;;;11.10;99.90;;;;;;4983877;28;20129;-58
2022/10/07 00:50:02;;;;;;;14.95;3.10;;;11.00;99.90;;;;;;4983939;28;20034;-60
2022/10/07 00:52:31;;;;;;;17.67;3.08;;;11.10;99.90;;;;;;4985532;28;20089;-60
2022/10/07 00:55:03;;;;;;;15.00;3.38;;;11.10;99.90;;;;;;4991450;28;20034;-59
2022/10/07 00:57:30;;;;;;;14.13;3.42;;;11.00;99.90;;;;;;4983799;28;20038;-59
2022/10/07 00:59:57;;;;;;;12.43;2.45;;;11.00;99.90;;;;;;4982523;28;20392;-60
2022/10/07 01:02:25;;;;;;;11.63;3.38;;;11.00;99.90;;;;;;4982834;28;20044;-60
2022/10/07 01:04:53;;;;;;;15.57;3.83;;;11.00;99.90;;;;;;4983144;28;20046;-60
2022/10/07 01:07:20;;;;;;;15.52;3.85;;;11.00;99.90;;;;;;4988866;28;20508;-60
2022/10/07 01:09:51;;;;;;;10.82;2.70;;;11.00;99.90;;;;;;4974082;28;20148;-59
2022/10/07 01:12:32;;;;;;;11.95;2.60;;;11.00;99.90;;;;;;4970020;28;20046;-59
2022/10/07 01:15:23;;;;;;;8.73;2.33;;;11.00;99.90;;;;;;4964410;28;20050;-60
2022/10/07 01:18:05;;;;;;;11.63;2.35;;;10.90;99.90;;;;;;4960587;28;20498;-59
2022/10/07 01:20:36;;;;;;;12.75;3.58;;;10.90;99.90;;;;;;4981571;28;22186;-60
2022/10/07 01:23:20;;;;;;;11.70;3.17;;;10.90;99.90;;;;;;4968527;28;20039;-60
2022/10/07 01:26:03;;;;;;;12.13;2.75;;;10.90;99.90;;;;;;4978523;28;20050;-60
2022/10/07 01:28:40;;;;;;;13.70;3.03;;;10.80;99.90;;;;;;4947638;28;20038;-60
2022/10/07 01:31:08;;;;;;;10.60;2.80;;;10.80;99.90;;;;;;4976387;28;20034;-60
2022/10/07 01:33:37;;;;;;;11.85;3.20;;;10.80;99.90;;;;;;4980088;28;20038;-59
2022/10/07 01:36:09;;;;;;;13.38;3.20;;;10.80;99.90;;;;;;4986073;28;20109;-60
2022/10/07 01:38:40;;;;;;;14.55;3.10;;;10.70;99.90;;;;;;4991455;28;20053;-59
2022/10/07 01:41:14;;;;;;;11.02;2.70;;;10.80;99.90;;;;;;4990011;28;20042;-59
2022/10/07 01:43:40;;;;;;;;;;;10.70;99.90;;;;;;4982718;28;20043;-59
2022/10/07 01:46:11;;;;;;;14.27;2.80;;;10.70;99.90;;;;;;4998369;28;20007;-59
2022/10/07 01:48:37;;;;;;;9.60;3.15;;;10.70;99.90;;;;;;4982832;28;20053;-59
2022/10/07 01:51:06;;;;;;;11.15;2.67;;;10.60;99.90;;;;;;4993372;28;20581;-59
2022/10/07 01:54:06;;;;;;;11.75;2.78;;;10.60;99.90;;;;;;4991927;28;20138;-59
2022/10/07 01:57:22;;;;;;;15.07;4.53;;;10.60;99.90;;;;;;4923573;28;20409;-59
2022/10/07 02:00:10;;;;;;;14.40;2.63;;;10.60;99.90;;;;;;4972155;28;20120;-60
2022/10/07 02:02:54;;;;;;;13.90;3.10;;;10.60;99.90;;;;;;4987291;28;20129;-60
2022/10/07 02:05:27;;;;;;;;;;;10.60;99.90;;;;;;4991731;28;20053;-60
2022/10/07 02:08:03;;;;;;;12.10;3.75;;;10.60;99.90;;;;;;4985951;28;19918;-59
2022/10/07 02:10:42;;;;;;;14.45;3.30;;;10.50;99.90;;;;;;4973414;28;20053;-60
2022/10/07 02:13:17;;;;;;;11.70;3.03;;;10.60;99.90;;;;;;4985877;28;20118;-60
2022/10/07 02:16:10;;;;;;;13.05;3.20;;;10.60;99.90;;;;;;4986383;28;20497;-60
2022/10/07 02:18:38;;;;;;;13.27;3.25;;;10.60;99.90;;;;;;4983883;28;20283;-60
2022/10/07 02:21:07;;;;;;;13.15;3.42;;;10.50;99.90;;;;;;4986124;28;20482;-59
2022/10/07 02:23:37;;;;;;;10.15;3.08;;;10.50;99.90;;;;;;4984639;28;20053;-60
2022/10/07 02:26:06;;;;;;;11.85;3.95;;;10.50;99.90;;;;;;4984006;28;20038;-59
2022/10/07 02:28:36;;;;;;;12.38;3.70;;;10.50;99.90;;;;;;4977092;28;20061;-60
2022/10/07 02:31:03;;;;;;;11.05;4.03;;;10.50;99.90;;;;;;4984050;28;20074;-59
2022/10/07 02:33:31;;;;;;;7.15;3.17;;;10.50;99.90;;;;;;4984830;28;20129;-60
2022/10/07 02:35:59;;;;;;;12.10;3.75;;;10.50;99.90;;;;;;4986434;28;20149;-60
2022/10/07 02:38:28;;;;;;;9.07;3.03;;;10.50;99.90;;;;;;4964385;28;20046;-60
2022/10/07 02:41:30;;;;;;;8.73;3.33;;;10.50;99.90;;;;;;4984188;28;20237;-60
2022/10/07 02:44:13;;;;;;;15.35;3.88;;;10.50;99.90;;;;;;4984301;28;20124;-59
2022/10/07 02:46:54;;;;;;;10.07;3.58;;;10.50;99.90;;;;;;4981211;28;20037;-59
2022/10/07 02:49:22;;;;;;;14.85;3.50;;;10.40;99.90;;;;;;4980547;28;20038;-60
2022/10/07 02:51:58;;;;;;;14.50;3.75;;;10.40;99.90;;;;;;4985341;28;20035;-60
2022/10/07 02:54:38;;;;;;;10.52;3.35;;;10.40;99.90;;;;;;4980379;28;20050;-59
2022/10/07 02:57:06;;;;;;;17.17;3.95;;;10.40;99.90;;;;;;4966760;28;20045;-59
2022/10/07 02:59:33;;;;;;;12.20;4.15;;;10.40;99.90;;;;;;4973129;28;20465;-59
2022/10/07 03:02:02;;;;;;;15.77;4.03;;;10.40;99.90;;;;;;4970437;28;20038;-60
2022/10/07 03:04:28;;;;;;;9.25;3.00;;;10.40;99.90;;;;;;4983042;28;20124;-60
2022/10/07 03:06:57;;;;;;;13.07;3.78;;;10.40;99.90;;;;;;4985683;28;20042;-59
2022/10/07 03:09:23;;;;;;;18.27;3.83;;;10.40;99.90;;;;;;4981225;28;20077;-60
2022/10/07 03:11:49;;;;;;;18.58;4.05;;;10.40;99.90;;;;;;4966461;28;20108;-59
2022/10/07 03:14:15;;;;;;;16.15;5.18;;;10.40;99.90;;;;;;4982930;28;20038;-60
2022/10/07 03:16:41;;;;;;;12.70;3.60;;;10.40;99.90;;;;;;4984161;28;20046;-58
2022/10/07 03:19:06;;;;;;;20.88;4.32;;;10.40;99.90;;;;;;4963876;28;20089;-58
2022/10/07 03:21:32;;;;;;;13.32;3.53;;;10.30;99.90;;;;;;4984936;28;20073;-59
2022/10/07 03:24:03;;;;;;;9.85;3.45;;;10.30;99.90;;;;;;4978215;28;20066;-59
2022/10/07 03:26:30;;;;;;;13.35;4.63;;;10.30;99.90;;;;;;4987950;28;20505;-59
2022/10/07 03:28:57;;;;;;;14.40;3.97;;;10.40;99.90;;;;;;4990930;28;20054;-59
2022/10/07 03:31:22;;;;;;;19.95;4.95;;;10.40;99.90;;;;;;4991307;28;20118;-60
2022/10/07 03:33:48;;;;;;;14.88;4.50;;;10.30;99.90;;;;;;4978758;28;20066;-58
2022/10/07 03:36:14;;;;;;;18.63;4.05;;;10.30;99.90;;;;;;4991382;28;20071;-59
2022/10/07 03:38:39;;;;;;;14.52;4.45;;;10.30;99.90;;;;;;4991132;28;20041;-59
2022/10/07 03:41:05;;;;;;;17.90;4.47;;;10.40;99.90;;;;;;4989453;28;20084;-59
2022/10/07 03:43:32;;;;;;;18.48;4.70;;;10.40;99.90;;;;;;4973395;28;20509;-60
2022/10/07 03:45:59;;;;;;;17.42;4.32;;;10.40;99.90;;;;;;4979899;28;20443;-60
2022/10/07 03:48:25;;;;;;;18.17;4.22;;;10.30;99.90;;;;;;4978157;28;20073;-59
2022/10/07 03:50:51;;;;;;;13.15;4.35;;;10.30;99.90;;;;;;4980050;28;20069;-60
2022/10/07 03:53:19;;;;;;;16.98;4.57;;;10.30;99.90;;;;;;4965677;28;20533;-60
2022/10/07 03:55:45;;;;;;;14.52;4.18;;;10.40;99.90;;;;;;4978128;28;21077;-60
2022/10/07 03:58:11;;;;;;;16.33;4.78;;;10.40;99.90;;;;;;4979049;28;20527;-60
2022/10/07 04:00:38;;;;;;;14.85;4.95;;;10.30;99.90;;;;;;4967691;28;20034;-60
2022/10/07 04:03:04;;;;;;;17.23;4.13;;;10.40;99.90;;;;;;4980961;28;20038;-58
2022/10/07 04:05:30;;;;;;;14.70;4.32;;;10.30;99.90;;;;;;4981998;28;20052;-59
2022/10/07 04:07:57;;;;;;;19.60;5.00;;;10.30;99.90;;;;;;4980872;28;21075;-58
2022/10/07 04:10:23;;;;;;;16.55;5.18;;;10.30;99.90;;;;;;4984925;28;20155;-58
2022/10/07 04:12:52;;;;;;;20.90;4.97;;;10.30;99.90;;;;;;4980094;28;20420;-59
2022/10/07 04:15:19;;;;;;;21.33;5.82;;;10.30;99.90;;;;;;4965712;28;20040;-60
2022/10/07 04:17:46;;;;;;;16.45;4.43;;;10.30;99.90;;;;;;4966729;28;20046;-60
2022/10/07 04:20:14;;;;;;;19.15;5.07;;;10.30;99.90;;;;;;4977334;28;20038;-60
2022/10/07 04:22:40;;;;;;;14.85;4.40;;;10.30;99.90;;;;;;4961542;28;20042;-59
2022/10/07 04:27:53;;;;;;;19.17;4.70;;;10.30;99.90;;;;;;4971879;28;20046;-60
2022/10/07 04:30:20;;;;;;;19.48;5.07;;;10.30;99.90;;;;;;4957754;28;20100;-60
2022/10/07 04:32:48;;;;;;;22.23;5.00;;;10.30;99.90;;;;;;4979008;28;20050;-59
2022/10/07 04:35:14;;;;;;;19.38;4.75;;;10.30;99.90;;;;;;4969887;28;20050;-58
2022/10/07 04:37:42;;;;;;;15.27;4.72;;;10.30;99.90;;;;;;4980176;28;20376;-60
2022/10/07 04:40:08;;;;;;;13.88;4.25;;;10.30;99.90;;;;;;4972441;28;20497;-59
2022/10/07 04:45:18;;;;;;;;;;;10.30;99.90;;;;;;4985461;28;20057;-59
2022/10/07 04:47:44;;;;;;;17.15;5.00;;;10.20;99.90;;;;;;4987610;28;19917;-59
2022/10/07 04:50:11;;;;;;;15.90;4.70;;;10.20;99.90;;;;;;4986449;28;20129;-59
2022/10/07 04:52:41;;;;;;;14.80;4.78;;;10.20;99.90;;;;;;4986419;28;20105;-60
2022/10/07 04:55:09;;;;;;;19.95;5.78;;;10.20;99.90;;;;;;4964377;28;20065;-60
2022/10/07 04:57:35;;;;;;;17.60;4.93;;;10.20;99.90;;;;;;4967554;28;20100;-59
2022/10/07 05:00:01;;;;;;;18.63;4.28;;;10.20;99.90;;;;;;4980025;28;20034;-59
2022/10/07 05:02:27;;;;;;;17.40;4.80;;;10.20;99.90;;;;;;4996204;23;20026;-82
2022/10/07 05:04:52;;;;;;;16.48;4.97;;;10.20;99.90;;;;;;4941269;28;20120;-83
2022/10/07 05:07:18;;;;;;;20.77;5.95;;;10.20;99.90;;;;;;4978417;28;20074;-83
2022/10/07 05:09:44;;;;;;;17.25;4.88;;;10.20;99.90;;;;;;4944210;28;20494;-81
2022/10/07 05:12:10;;;;;;;16.67;5.10;;;10.20;99.90;;;;;;4940606;28;20053;-83
2022/10/07 05:14:36;;;;;;;23.33;5.40;;;10.20;99.90;;;;;;4908894;28;20034;-82
2022/10/07 05:17:03;;;;;;;13.65;4.70;;;10.20;99.90;;;;;;4904942;28;20046;-87
2022/10/07 05:19:29;;;;;;;18.70;5.28;;;10.20;99.90;;;;;;4945330;28;20076;-82
2022/10/07 05:21:55;;;;;;;13.48;5.20;;;10.20;99.90;;;;;;4944477;28;20182;-84
2022/10/07 05:24:20;;;;;;;15.55;5.05;;;11.30;99.90;;;;;;4942070;28;20061;-85
2022/10/07 05:26:46;;;;;;;16.35;5.00;;;10.20;99.90;;;;;;4967915;28;20038;-84
2022/10/07 05:29:12;;;;;;;24.25;7.00;;;10.20;99.90;;;;;;4925457;28;20039;-85
2022/10/07 05:31:38;;;;;;;16.15;5.40;;;10.20;99.90;;;;;;4939598;28;20483;-82
2022/10/07 05:34:03;;;;;;;15.38;5.22;;;10.20;99.90;;;;;;4941934;28;20078;-84
2022/10/07 05:36:29;;;;;;;19.98;5.72;;;10.20;99.90;;;;;;4904479;28;20121;-84
2022/10/07 05:38:56;;;;;;;16.10;4.95;;;10.20;99.90;;;;;;4906498;28;20035;-81
2022/10/07 05:41:23;;;;;;;19.83;4.95;;;10.20;99.90;;;;;;4917141;28;20035;-85
2022/10/07 05:43:49;;;;;;;21.55;6.20;;;10.20;99.90;;;;;;4921170;28;20043;-86
2022/10/07 05:46:19;;;;;;;15.32;5.07;;;10.20;99.90;;;;;;4919840;28;20046;-85
2022/10/07 05:48:47;;;;;;;16.63;5.55;;;10.40;99.90;;;;;;4954586;28;20494;-84
2022/10/07 05:51:13;;;;;;;17.42;4.78;;;10.50;99.90;;;;;;4957805;28;20035;-85
2022/10/07 05:53:40;;;;;;;20.25;5.65;;;10.80;99.90;;;;;;4925819;28;20049;-85
2022/10/07 05:56:07;;;;;;;24.23;5.50;;;10.20;99.90;;;;;;4937364;28;20031;-83
2022/10/07 05:58:35;;;;;;;16.55;4.85;;;10.20;99.90;;;;;;4951179;28;20047;-85
2022/10/07 06:01:02;;;;;;;17.60;6.03;;;11.40;99.90;;;;;;4942850;28;20039;-86
2022/10/07 06:03:28;;;;;;;16.63;5.60;;;10.30;99.90;;;;;;4920517;28;20039;-81
2022/10/07 06:05:54;;;;;;;13.55;4.80;;;10.70;99.90;;;;;;4939241;28;20495;-85
2022/10/07 06:08:22;;;;;;;24.60;6.18;;;10.40;99.90;;;;;;4920119;28;20499;-86
2022/10/07 06:13:34;;;;;;;19.67;5.05;;;10.40;99.90;;;;;;4951196;28;20547;-86
2022/10/07 06:16:05;;;;;;;20.40;4.95;;;10.50;99.90;;;;;;4921593;28;20121;-83
2022/10/07 06:18:31;;;;;;;21.90;7.03;;;10.20;99.90;;;;;;4949899;28;20093;-84
2022/10/07 06:20:59;;;;;;;20.83;5.75;;;10.60;99.90;;;;;;4941082;28;20038;-85
2022/10/07 06:23:26;;;;;;;17.30;5.38;;;10.60;99.90;;;;;;4952165;28;20048;-85
2022/10/07 06:25:57;;;;;;;22.08;5.55;;;10.70;99.90;;;;;;4937174;28;20051;-85
2022/10/07 06:28:23;;;;;;;18.02;5.65;;;10.70;99.90;;;;;;4938295;28;20043;-85
2022/10/07 06:30:50;;;;;;;16.88;5.47;;;10.80;99.90;;;;;;4958526;28;20043;-85
2022/10/07 06:33:17;;;;;;;23.08;5.75;;;10.80;99.90;;;;;;4940256;28;20081;-85
2022/10/07 06:35:43;;;;;;;18.40;5.95;;;10.80;99.90;;;;;;4944851;28;20149;-84
2022/10/07 06:38:09;;;;;;;18.10;6.25;;;11.00;99.90;;;;;;4942749;28;20074;-83
2022/10/07 06:40:35;;;;;;;19.85;6.28;;;11.10;99.90;;;;;;4958847;28;20069;-83
2022/10/07 06:43:00;;;;;;;20.27;5.47;;;11.40;99.90;;;;;;4948008;28;20392;-86
2022/10/07 06:45:28;;;;;;;22.60;6.03;;;11.80;99.90;;;;;;4935253;28;20126;-82
2022/10/07 06:47:54;;;;;;;16.48;5.13;;;11.80;99.90;;;;;;4935525;28;20105;-84
2022/10/07 06:50:20;;;;;;;19.98;6.32;;;12.20;99.90;;;;;;4930232;28;20483;-85
2022/10/07 06:52:45;;;;;;;17.55;6.38;;;12.30;99.90;;;;;;4940506;28;20047;-87
2022/10/07 06:55:11;;;;;;;16.77;5.43;;;12.30;99.90;;;;;;4940312;28;20034;-86
2022/10/07 06:57:38;;;;;;;23.45;6.28;;;12.20;99.90;;;;;;4922283;28;20467;-83
2022/10/07 07:00:04;;;;;;;17.80;5.63;;;12.20;99.90;;;;;;4944351;28;20042;-84
2022/10/07 07:02:32;;;;;;;18.65;5.45;;;12.10;99.90;;;;;;4937763;28;20035;-85
2022/10/07 07:04:57;;;;;;;17.55;5.45;;;12.00;99.90;;;;;;4939084;28;20578;-85
2022/10/07 07:07:23;;;;;;;17.50;6.00;;;11.90;99.90;;;;;;4941487;28;20571;-85
2022/10/07 07:09:55;;;;;;;22.92;6.07;;;11.90;99.90;;;;;;4938919;28;20039;-83
2022/10/07 07:12:24;;;;;;;22.38;5.95;;;11.90;99.90;;;;;;4955420;28;20129;-84
2022/10/07 07:14:50;;;;;;;17.63;6.07;;;11.90;99.90;;;;;;4931242;28;20038;-87
2022/10/07 07:17:16;;;;;;;16.80;5.60;;;11.90;99.90;;;;;;4963623;28;20081;-85
2022/10/07 07:19:42;;;;;;;17.88;6.53;;;13.00;99.90;;;;;;4923766;28;20500;-87
2022/10/07 07:22:08;;;;;;;21.05;6.50;;;11.90;99.90;;;;;;4904291;28;20137;-84
2022/10/07 07:24:33;;;;;;;27.02;6.70;;;12.00;99.90;;;;;;4951915;28;20034;-85
2022/10/07 07:26:59;;;;;;;11.50;5.05;;;12.00;99.90;;;;;;4959212;28;20169;-88
2022/10/07 07:29:28;;;;;;;18.65;6.22;;;12.10;99.90;;;;;;4928711;28;20101;-81
2022/10/07 07:31:54;;;;;;;18.52;5.72;;;12.10;99.90;;;;;;4957199;28;20189;-83
2022/10/07 07:34:20;;;;;;;15.88;6.03;;;12.10;99.90;;;;;;4938388;28;20559;-83
2022/10/07 07:36:49;;;;;;;18.55;6.47;;;12.20;99.90;;;;;;4922854;28;20042;-85
2022/10/07 07:39:17;;;;;;;16.33;6.07;;;12.20;99.90;;;;;;4959430;28;20034;-83
2022/10/07 07:41:49;;;;;;;22.08;6.95;;;12.30;99.90;;;;;;4944027;28;20019;-81
2022/10/07 07:44:17;;;;;;;20.52;6.32;;;12.30;99.90;;;;;;4938190;28;20046;-86
2022/10/07 07:46:47;;;;;;;18.20;5.25;;;12.50;99.90;;;;;;4923623;28;20046;-85
2022/10/07 07:49:14;;;;;;;19.83;6.57;;;12.50;99.90;;;;;;4957152;28;20054;-85
2022/10/07 07:51:41;;;;;;;21.58;5.28;;;12.70;99.90;;;;;;4941081;28;20053;-85
2022/10/07 07:54:32;;;;;;;14.27;5.90;;;12.70;99.90;;;;;;4941306;28;20042;-85
2022/10/07 07:56:59;;;;;;;15.43;5.68;;;12.80;99.90;;;;;;4938003;28;20109;-84
2022/10/07 07:59:25;;;;;;;15.35;5.65;;;13.60;99.90;;;;;;4946386;28;20047;-85
2022/10/07 08:01:51;;;;;;;15.98;6.28;;;13.00;99.90;;;;;;4938542;28;20125;-83
2022/10/07 08:04:16;;;;;;;17.15;5.35;;;13.10;99.90;;;;;;4941653;28;20126;-84
2022/10/07 08:06:43;;;;;;;14.57;5.28;;;13.70;99.90;;;;;;4916074;28;20042;-85
2022/10/07 08:09:09;;;;;;;15.70;6.07;;;13.20;99.90;;;;;;4942666;28;20043;-83
2022/10/07 08:11:34;;;;;;;18.33;5.25;;;13.30;99.90;;;;;;4938132;28;20038;-87
2022/10/07 08:14:02;;;;;;;17.30;4.53;;;13.40;99.90;;;;;;4927977;28;20112;-85
2022/10/07 08:16:28;;;;;;;22.83;6.18;;;13.40;99.90;;;;;;4922784;28;20050;-81
2022/10/07 08:18:56;;;;;;;14.00;5.22;;;13.40;99.90;;;;;;4924751;28;20125;-86
2022/10/07 08:21:25;;;;;;;14.38;4.82;;;13.50;99.90;;;;;;4924308;28;20249;-85
2022/10/07 08:23:53;;;;;;;19.88;5.75;;;13.60;99.90;;;;;;4942319;28;20042;-85
2022/10/07 08:26:19;;;;;;;15.13;4.10;;;13.70;99.90;;;;;;4926901;28;20388;-86
2022/10/07 08:28:47;;;;;;;16.63;4.32;;;13.80;99.90;;;;;;4922999;28;20053;-87
2022/10/07 08:31:18;;;;;;;16.70;4.00;;;13.90;99.90;;;;;;4940293;28;20038;-87
2022/10/07 08:33:48;;;;;;;18.88;4.30;;;13.90;99.90;;;;;;4940524;28;20065;-88
2022/10/07 08:36:20;;;;;;;13.98;4.00;;;14.00;99.90;;;;;;4955804;28;20110;-87
2022/10/07 08:38:46;;;;;;;15.35;4.47;;;13.40;99.90;;;;;;4942743;28;20046;-86
2022/10/07 08:41:44;;;;;;;16.15;4.70;;;14.20;99.90;;;;;;4946374;28;20133;-88
2022/10/07 08:44:16;;;;;;;14.07;4.25;;;14.30;99.90;;;;;;4942997;28;20042;-90
2022/10/07 08:46:55;;;;;;;20.88;5.38;;;14.30;99.90;;;;;;4953266;28;20050;-91
2022/10/07 08:49:34;;;;;;;17.90;4.93;;;14.50;99.90;;;;;;4953596;28;20392;-89
2022/10/07 08:52:28;;;;;;;15.88;3.92;;;14.50;99.90;;;;;;4955543;28;20042;-87
2022/10/07 08:55:41;;;;;;;13.23;3.80;;;14.60;99.90;;;;;;4956938;28;20189;-89
2022/10/07 08:58:17;;;;;;;15.57;4.15;;;14.70;99.90;;;;;;4938968;28;20051;-88
2022/10/07 09:01:14;;;;;;;19.73;4.30;;;14.70;99.90;;;;;;4945257;28;20137;-90
2022/10/07 09:04:01;;;;;;;19.83;4.20;;;14.80;99.90;;;;;;4941738;28;20046;-87
2022/10/07 09:06:50;;;;;;;14.68;4.53;;;15.00;99.90;;;;;;4937458;28;20049;-87
2022/10/07 09:09:24;;;;;;;21.77;5.05;;;15.00;99.90;;;;;;4941664;28;20061;-87
2022/10/07 09:11:51;;;;;;;20.60;5.25;;;15.10;99.90;;;;;;4962551;28;20038;-84
2022/10/07 09:14:26;;;;;;;13.02;3.92;;;15.30;99.90;;;;;;4947473;28;20155;-85
2022/10/07 09:17:33;;;;;;;15.63;4.20;;;15.40;99.90;;;;;;4933114;28;20118;-88
2022/10/07 09:20:04;;;;;;;19.20;3.92;;;15.50;99.90;;;;;;4942110;28;20066;-84
2022/10/07 09:22:36;;;;;;;14.57;4.30;;;15.60;99.90;;;;;;4964428;28;20065;-87
2022/10/07 09:25:11;;;;;;;13.35;3.80;;;15.70;99.90;;;;;;4943705;28;20104;-84
2022/10/07 09:27:40;;;;;;;14.25;3.28;;;15.80;99.90;;;;;;4937072;28;20046;-87
2022/10/07 09:30:11;;;;;;;16.23;4.63;;;15.80;99.90;;;;;;4938808;28;20057;-86
2022/10/07 09:32:39;;;;;;;18.52;4.15;;;16.00;99.90;;;;;;4946626;28;20058;-85
2022/10/07 09:35:05;;;;;;;14.35;3.40;;;16.20;99.90;;;;;;4940222;28;20608;-87
2022/10/07 09:37:31;;;;;;;14.70;3.90;;;16.20;99.90;;;;;;4942705;28;20047;-86
2022/10/07 09:41:14;;;;;;;19.20;3.53;;;16.10;99.90;;;;;;4926976;28;20039;-85
2022/10/07 09:43:29;;;;;;;21.52;4.47;;;16.00;99.90;;;;;;4955775;28;20039;-87
2022/10/07 09:45:57;;;;;;;16.02;4.07;;;15.90;99.90;;;;;;4962992;28;20124;-87
2022/10/07 09:48:27;;;;;;;12.07;3.55;;;15.90;99.90;;;;;;4931015;28;20054;-87
2022/10/07 09:51:16;;;;;;;16.90;3.28;;;15.90;99.90;;;;;;4934517;28;20042;-85
2022/10/07 09:54:03;;;;;;;17.25;4.13;;;16.00;99.90;;;;;;4954078;28;20039;-87
2022/10/07 09:56:39;;;;;;;18.42;3.40;;;16.10;99.90;;;;;;4943347;28;20042;-85
2022/10/07 09:59:34;;;;;;;12.20;3.13;;;16.30;99.90;;;;;;4940773;28;20030;-87
2022/10/07 10:02:23;;;;;;;12.77;3.60;;;16.50;99.90;;;;;;4940758;28;20097;-86
2022/10/07 10:04:51;;;;;;;19.33;3.72;;;16.60;99.90;;;;;;4956871;28;20043;-84
2022/10/07 10:07:22;;;;;;;18.35;4.03;;;16.60;99.90;;;;;;4941313;28;20043;-85
2022/10/07 10:09:50;;;;;;;16.95;3.50;;;16.60;99.90;;;;;;4958649;28;20097;-85
2022/10/07 10:12:18;;;;;;;12.48;3.05;;;16.70;99.90;;;;;;4952982;28;20053;-86
2022/10/07 10:14:50;;;;;;;21.27;3.65;;;16.80;99.90;;;;;;4940584;28;20041;-85
2022/10/07 10:17:42;;;;;;;19.77;4.10;;;16.80;99.90;;;;;;4941977;28;20043;-86
2022/10/07 10:20:26;;;;;;;16.05;3.70;;;16.90;99.90;;;;;;4938070;28;20042;-86
2022/10/07 10:22:52;;;;;;;12.75;3.25;;;16.60;99.90;;;;;;4958688;28;20038;-86
2022/10/07 10:28:50;;;;;;;20.83;4.18;;;17.20;99.90;;;;;;4953194;28;20164;-85
2022/10/07 10:31:28;;;;;;;15.88;4.18;;;17.20;99.90;;;;;;4970292;28;20078;-86
2022/10/07 10:34:08;;;;;;;16.45;3.80;;;17.30;99.90;;;;;;4957882;28;20101;-87
2022/10/07 10:36:41;;;;;;;17.10;3.80;;;17.30;99.90;;;;;;4956887;28;20117;-85
2022/10/07 10:39:33;;;;;;;14.38;3.72;;;17.40;99.90;;;;;;4958449;28;20551;-85
2022/10/07 10:42:06;;;;;;;13.50;3.10;;;17.40;99.90;;;;;;4959462;28;20050;-86
2022/10/07 10:44:59;;;;;;;15.50;3.77;;;17.50;99.90;;;;;;4937227;28;20046;-85
2022/10/07 10:47:34;;;;;;;15.40;3.75;;;17.50;99.90;;;;;;4955940;28;20428;-86
2022/10/07 10:50:44;;;;;;;18.98;4.88;;;17.50;99.90;;;;;;4940075;28;20404;-83
2022/10/07 10:53:52;;;;;;;11.88;3.30;;;17.70;99.90;;;;;;4869715;29;20052;-89
2022/10/07 10:56:21;;;;;;;13.32;3.10;;;17.50;99.90;;;;;;4841591;29;20500;-85
2022/10/07 10:58:53;;;;;;;12.23;3.60;;;17.60;99.90;;;;;;4924686;28;20050;-84
2022/10/07 11:01:40;;;;;;;14.60;3.65;;;17.60;99.90;;;;;;4942820;28;20130;-86
2022/10/07 11:04:31;;;;;;;19.45;3.58;;;17.60;99.90;;;;;;4986428;23;20422;-83
2022/10/07 11:07:28;;;;;;;16.92;4.30;;;17.50;99.90;;;;;;5024860;28;20125;-84
2022/10/07 11:10:20;;;;;;;14.65;3.65;;;17.50;99.90;;;;;;5049021;28;20045;-83
2022/10/07 11:12:53;;;;;;;12.18;3.00;;;17.50;99.90;;;;;;5013724;28;20052;-83
2022/10/07 11:15:34;;;;;;;20.65;4.55;;;17.50;99.90;;;;;;4987702;28;20047;-82
2022/10/07 11:18:20;;;;;;;15.60;3.63;;;17.60;99.90;;;;;;5008915;28;20042;-82
2022/10/07 11:20:50;;;;;;;15.20;3.60;;;17.80;99.90;;;;;;5010612;28;20038;-82
2022/10/07 11:23:43;;;;;;;13.60;3.70;;;17.70;99.90;;;;;;5020746;23;20515;-60
2022/10/07 11:26:33;;;;;;;12.73;3.28;;;17.80;99.90;;;;;;5056138;28;20063;-60
2022/10/07 11:29:04;;;;;;;11.43;3.33;;;17.90;99.90;;;;;;5059324;28;20036;-60
2022/10/07 11:31:39;;;;;;;14.57;3.55;;;18.00;99.90;;;;;;5030625;28;20301;-60
2022/10/07 11:34:20;;;;;;;12.93;2.97;;;18.00;99.90;;;;;;5034283;28;20044;-59
2022/10/07 11:36:51;;;;;;;15.23;4.45;;;17.90;99.90;;;;;;5039257;28;20499;-60
2022/10/07 11:39:20;;;;;;;12.68;2.97;;;17.90;99.90;;;;;;5056897;28;20037;-60
2022/10/07 11:42:05;;;;;;;17.77;3.55;;;18.00;99.90;;;;;;5034055;28;20127;-59
2022/10/07 11:44:38;;;;;;;11.52;3.50;;;18.10;99.90;;;;;;5053757;28;20043;-60
2022/10/07 11:47:10;;;;;;;17.90;3.92;;;18.10;99.90;;;;;;5041441;28;20472;-59
2022/10/07 11:49:54;;;;;;;14.18;3.42;;;18.00;99.90;;;;;;5050948;28;20123;-60
2022/10/07 11:52:25;;;;;;;14.30;3.80;;;17.90;99.90;;;;;;5039353;28;20102;-60
2022/10/07 11:55:03;;;;;;;15.57;4.07;;;17.70;99.90;;;;;;5047700;28;20075;-59
2022/10/07 11:57:32;;;;;;;17.15;3.88;;;17.60;99.90;;;;;;5030652;28;20135;-59
2022/10/07 12:00:33;;;;;;;15.63;3.67;;;17.40;99.90;;;;;;5052927;28;20041;-58
2022/10/07 12:03:17;;;;;;;14.30;3.60;;;17.30;99.90;;;;;;5040003;28;20063;-61
2022/10/07 12:05:48;;;;;;;13.10;3.42;;;17.20;99.90;;;;;;5052071;28;20075;-60
2022/10/07 12:08:37;;;;;;;19.75;4.10;;;17.10;99.90;;;;;;5050554;28;20110;-59
2022/10/07 12:11:13;;;;;;;12.32;3.28;;;17.20;99.90;;;;;;5054459;28;20036;-61
2022/10/07 12:13:43;;;;;;;14.55;3.88;;;17.10;99.90;;;;;;5049872;28;20037;-61
2022/10/07 12:16:27;;;;;;;14.77;3.92;;;17.20;99.90;;;;;;5048124;28;20364;-58
2022/10/07 12:19:11;;;;;;;14.02;3.47;;;17.20;99.90;;;;;;5048107;28;20522;-59
2022/10/07 12:22:04;;;;;;;15.50;2.85;;;17.20;99.90;;;;;;5022526;28;20037;-60
2022/10/07 12:24:33;;;;;;;17.63;3.67;;;17.20;99.90;;;;;;5048525;28;20491;-61
2022/10/07 12:27:24;;;;;;;13.90;2.97;;;17.20;99.90;;;;;;5051549;28;20118;-61
2022/10/07 12:29:57;;;;;;;11.77;3.08;;;17.20;99.90;;;;;;5029675;28;20453;-61
2022/10/07 12:32:45;;;;;;;11.88;2.92;;;17.10;99.90;;;;;;5053979;28;20410;-61
2022/10/07 12:35:32;;;;;;;9.20;3.08;;;17.10;99.90;;;;;;5054288;28;20135;-59
2022/10/07 12:38:01;;;;;;;17.67;4.00;;;17.50;99.90;;;;;;5045326;28;20152;-58
2022/10/07 12:40:30;;;;;;;17.45;4.00;;;17.20;99.90;;;;;;5051699;28;20345;-59
2022/10/07 12:43:09;;;;;;;10.88;2.78;;;17.20;99.90;;;;;;5034752;28;20040;-58
2022/10/07 12:45:40;;;;;;;13.45;3.13;;;17.10;99.90;;;;;;5045792;28;20044;-59
2022/10/07 12:48:14;;;;;;;14.27;2.92;;;17.10;99.90;;;;;;5032823;28;20044;-59
2022/10/07 12:50:41;;;;;;;11.73;2.33;;;17.20;99.90;;;;;;5056890;28;20036;-59
2022/10/07 12:53:10;;;;;;;13.02;2.80;;;17.20;99.90;;;;;;5045260;28;20048;-59
2022/10/07 12:55:41;;;;;;;8.70;2.72;;;17.20;99.90;;;;;;5023978;28;20068;-59
2022/10/07 13:02:10;;;;;;;12.25;3.30;;;17.10;99.90;;;;;;5023770;28;20046;-59
2022/10/07 13:05:27;;;;;;;9.68;2.60;;;16.90;99.90;;;;;;5041557;28;20044;-58
2022/10/07 13:08:06;;;;;;;17.38;3.03;;;17.00;99.90;;;;;;5037742;28;20045;-59
2022/10/07 13:10:50;;;;;;;10.75;2.90;;;17.10;99.90;;;;;;5050804;28;20075;-59
2022/10/07 13:13:31;;;;;;;13.75;3.22;;;17.20;99.90;;;;;;5054513;28;20116;-59
2022/10/07 13:16:11;;;;;;;16.98;3.38;;;17.30;99.90;;;;;;5049916;28;20040;-58
2022/10/07 13:18:37;;;;;;;14.60;2.97;;;17.40;99.90;;;;;;5050128;28;20056;-61
2022/10/07 13:21:23;;;;;;;13.40;3.17;;;17.40;99.90;;;;;;5048597;28;20467;-59